San Luis, Argentina
Current Conditions -  °F | °C
As of 4:00 PM on Saturday 20 Dec 2014 (Local Time) from SAOC Reporting Station
Broken Clouds Broken Clouds  
Wind Chill: 24°   Ceiling: 10000
Heat Index: 24°   Visibility: 6mi
Dew Point:   Wind: 21mph
Humidity: 34%   Direction: 160°SSE
Pressure: 29.65"   Gusts: NA
Location:  33.3°S, 66.35°W
Report Text: SAOC 201900Z 16018KT 9999 FEW020 BKN10024/07 Q1004
Loading
Personal Weather Stations






























Interactive Weather Map New forecast layout! Learn more

10-Day Weather Forecast

Advertisements
Track Severe Weather on mobile